sensor_id;sensor_type;location;lat;lon;timestamp;P1;durP1;ratioP1;P2;durP2;ratioP2
36445;SDS011;22472;50.848;-1.216;2022-08-04T00:00:43;8.23;;;1.45;;
36445;SDS011;22472;50.848;-1.216;2022-08-04T00:03:18;4.55;;;1.20;;
36445;SDS011;22472;50.848;-1.216;2022-08-04T00:05:53;6.85;;;1.25;;
36445;SDS011;22472;50.848;-1.216;2022-08-04T00:08:32;4.68;;;1.35;;
36445;SDS011;22472;50.848;-1.216;2022-08-04T00:11:04;5.70;;;1.48;;
36445;SDS011;22472;50.848;-1.216;2022-08-04T00:13:35;4.30;;;1.30;;
36445;SDS011;22472;50.848;-1.216;2022-08-04T00:16:05;7.55;;;1.30;;
36445;SDS011;22472;50.848;-1.216;2022-08-04T00:18:34;6.18;;;1.27;;
36445;SDS011;22472;50.848;-1.216;2022-08-04T00:21:05;5.88;;;1.40;;
36445;SDS011;22472;50.848;-1.216;2022-08-04T00:23:36;5.32;;;1.25;;
36445;SDS011;22472;50.848;-1.216;2022-08-04T00:26:08;5.50;;;1.40;;
36445;SDS011;22472;50.848;-1.216;2022-08-04T00:28:36;7.05;;;1.30;;
36445;SDS011;22472;50.848;-1.216;2022-08-04T00:31:04;6.30;;;1.40;;
36445;SDS011;22472;50.848;-1.216;2022-08-04T00:33:34;6.75;;;1.25;;
36445;SDS011;22472;50.848;-1.216;2022-08-04T00:36:03;6.90;;;1.52;;
36445;SDS011;22472;50.848;-1.216;2022-08-04T00:38:31;5.82;;;1.30;;
36445;SDS011;22472;50.848;-1.216;2022-08-04T00:41:02;9.27;;;1.17;;
36445;SDS011;22472;50.848;-1.216;2022-08-04T00:43:48;7.38;;;1.45;;
36445;SDS011;22472;50.848;-1.216;2022-08-04T00:46:36;6.45;;;1.05;;
36445;SDS011;22472;50.848;-1.216;2022-08-04T00:52:22;5.80;;;1.27;;
36445;SDS011;22472;50.848;-1.216;2022-08-04T00:55:02;5.45;;;1.50;;
36445;SDS011;22472;50.848;-1.216;2022-08-04T00:57:38;5.43;;;1.23;;
36445;SDS011;22472;50.848;-1.216;2022-08-04T01:00:23;6.93;;;1.10;;
36445;SDS011;22472;50.848;-1.216;2022-08-04T01:02:54;7.78;;;1.08;;
36445;SDS011;22472;50.848;-1.216;2022-08-04T01:05:37;7.13;;;1.30;;
36445;SDS011;22472;50.848;-1.216;2022-08-04T01:08:19;9.75;;;1.63;;
36445;SDS011;22472;50.848;-1.216;2022-08-04T01:11:11;5.93;;;1.00;;
36445;SDS011;22472;50.848;-1.216;2022-08-04T01:13:58;5.80;;;0.88;;
36445;SDS011;22472;50.848;-1.216;2022-08-04T01:16:38;4.30;;;0.95;;
36445;SDS011;22472;50.848;-1.216;2022-08-04T01:19:17;6.40;;;1.15;;
36445;SDS011;22472;50.848;-1.216;2022-08-04T01:22:17;6.28;;;0.85;;
36445;SDS011;22472;50.848;-1.216;2022-08-04T01:24:58;6.30;;;1.17;;
36445;SDS011;22472;50.848;-1.216;2022-08-04T01:27:42;8.13;;;1.35;;
36445;SDS011;22472;50.848;-1.216;2022-08-04T01:30:25;9.07;;;1.20;;
36445;SDS011;22472;50.848;-1.216;2022-08-04T01:32:59;6.38;;;1.20;;
36445;SDS011;22472;50.848;-1.216;2022-08-04T01:35:38;9.63;;;1.20;;
36445;SDS011;22472;50.848;-1.216;2022-08-04T01:38:15;9.55;;;1.48;;
36445;SDS011;22472;50.848;-1.216;2022-08-04T01:40:44;9.48;;;1.33;;
36445;SDS011;22472;50.848;-1.216;2022-08-04T01:43:12;5.00;;;1.17;;
36445;SDS011;22472;50.848;-1.216;2022-08-04T01:45:42;7.32;;;1.20;;
36445;SDS011;22472;50.848;-1.216;2022-08-04T01:48:16;8.32;;;1.30;;
36445;SDS011;22472;50.848;-1.216;2022-08-04T01:50:48;8.90;;;1.08;;
36445;SDS011;22472;50.848;-1.216;2022-08-04T01:53:17;11.63;;;1.60;;
36445;SDS011;22472;50.848;-1.216;2022-08-04T01:55:45;10.02;;;1.33;;
36445;SDS011;22472;50.848;-1.216;2022-08-04T01:58:15;9.05;;;1.75;;
36445;SDS011;22472;50.848;-1.216;2022-08-04T02:00:49;9.02;;;1.40;;
36445;SDS011;22472;50.848;-1.216;2022-08-04T02:03:24;8.10;;;1.25;;
36445;SDS011;22472;50.848;-1.216;2022-08-04T02:05:51;8.80;;;1.10;;
36445;SDS011;22472;50.848;-1.216;2022-08-04T02:08:38;12.30;;;1.42;;
36445;SDS011;22472;50.848;-1.216;2022-08-04T02:11:11;9.30;;;1.30;;
36445;SDS011;22472;50.848;-1.216;2022-08-04T02:13:45;7.80;;;1.17;;
36445;SDS011;22472;50.848;-1.216;2022-08-04T02:16:26;10.07;;;1.45;;
36445;SDS011;22472;50.848;-1.216;2022-08-04T02:19:00;9.48;;;1.70;;
36445;SDS011;22472;50.848;-1.216;2022-08-04T02:21:33;6.47;;;1.23;;
36445;SDS011;22472;50.848;-1.216;2022-08-04T02:24:02;8.70;;;1.42;;
36445;SDS011;22472;50.848;-1.216;2022-08-04T02:26:34;5.82;;;1.30;;
36445;SDS011;22472;50.848;-1.216;2022-08-04T02:29:03;7.88;;;1.30;;
36445;SDS011;22472;50.848;-1.216;2022-08-04T02:31:42;7.22;;;1.40;;
36445;SDS011;22472;50.848;-1.216;2022-08-04T02:34:16;8.63;;;1.35;;
36445;SDS011;22472;50.848;-1.216;2022-08-04T02:36:50;7.50;;;1.23;;
36445;SDS011;22472;50.848;-1.216;2022-08-04T02:39:20;9.50;;;1.15;;
36445;SDS011;22472;50.848;-1.216;2022-08-04T02:41:48;7.25;;;1.40;;
36445;SDS011;22472;50.848;-1.216;2022-08-04T02:44:18;9.05;;;1.13;;
36445;SDS011;22472;50.848;-1.216;2022-08-04T02:46:52;8.93;;;1.20;;
36445;SDS011;22472;50.848;-1.216;2022-08-04T02:49:20;9.38;;;1.10;;
36445;SDS011;22472;50.848;-1.216;2022-08-04T02:51:49;10.05;;;1.25;;
36445;SDS011;22472;50.848;-1.216;2022-08-04T02:54:19;7.75;;;1.25;;
36445;SDS011;22472;50.848;-1.216;2022-08-04T02:56:51;4.32;;;0.93;;
36445;SDS011;22472;50.848;-1.216;2022-08-04T02:59:19;8.57;;;1.38;;
36445;SDS011;22472;50.848;-1.216;2022-08-04T03:01:53;5.32;;;1.15;;
36445;SDS011;22472;50.848;-1.216;2022-08-04T03:04:25;6.97;;;1.33;;
36445;SDS011;22472;50.848;-1.216;2022-08-04T03:10:17;10.02;;;1.40;;
36445;SDS011;22472;50.848;-1.216;2022-08-04T03:19:16;7.30;;;1.27;;
36445;SDS011;22472;50.848;-1.216;2022-08-04T03:22:27;7.50;;;1.45;;
36445;SDS011;22472;50.848;-1.216;2022-08-04T03:28:38;10.65;;;1.48;;
36445;SDS011;22472;50.848;-1.216;2022-08-04T03:31:49;6.55;;;1.30;;
36445;SDS011;22472;50.848;-1.216;2022-08-04T03:34:49;9.18;;;1.50;;
36445;SDS011;22472;50.848;-1.216;2022-08-04T03:40:35;8.10;;;1.08;;
36445;SDS011;22472;50.848;-1.216;2022-08-04T03:46:18;5.43;;;1.10;;
36445;SDS011;22472;50.848;-1.216;2022-08-04T03:52:24;7.07;;;1.00;;
36445;SDS011;22472;50.848;-1.216;2022-08-04T03:55:43;10.50;;;1.50;;
36445;SDS011;22472;50.848;-1.216;2022-08-04T04:01:11;8.68;;;1.65;;
36445;SDS011;22472;50.848;-1.216;2022-08-04T04:04:01;7.70;;;1.40;;
36445;SDS011;22472;50.848;-1.216;2022-08-04T04:06:51;7.18;;;1.33;;
36445;SDS011;22472;50.848;-1.216;2022-08-04T04:09:51;6.55;;;1.10;;
36445;SDS011;22472;50.848;-1.216;2022-08-04T04:12:47;9.43;;;1.40;;
36445;SDS011;22472;50.848;-1.216;2022-08-04T04:15:35;10.20;;;1.70;;
36445;SDS011;22472;50.848;-1.216;2022-08-04T04:18:20;11.18;;;1.73;;
36445;SDS011;22472;50.848;-1.216;2022-08-04T04:21:16;8.50;;;1.75;;
36445;SDS011;22472;50.848;-1.216;2022-08-04T04:24:02;6.80;;;1.40;;
36445;SDS011;22472;50.848;-1.216;2022-08-04T04:26:50;6.45;;;1.08;;
36445;SDS011;22472;50.848;-1.216;2022-08-04T04:29:43;10.50;;;1.67;;
36445;SDS011;22472;50.848;-1.216;2022-08-04T04:32:29;4.82;;;1.33;;
36445;SDS011;22472;50.848;-1.216;2022-08-04T04:35:08;9.95;;;1.80;;
36445;SDS011;22472;50.848;-1.216;2022-08-04T04:37:49;7.00;;;1.35;;
36445;SDS011;22472;50.848;-1.216;2022-08-04T04:40:32;7.35;;;1.63;;
36445;SDS011;22472;50.848;-1.216;2022-08-04T04:43:12;11.73;;;2.00;;
36445;SDS011;22472;50.848;-1.216;2022-08-04T04:45:55;5.97;;;1.75;;
36445;SDS011;22472;50.848;-1.216;2022-08-04T04:48:30;9.35;;;2.28;;
36445;SDS011;22472;50.848;-1.216;2022-08-04T04:51:09;9.18;;;2.15;;
36445;SDS011;22472;50.848;-1.216;2022-08-04T04:53:44;9.75;;;1.90;;
36445;SDS011;22472;50.848;-1.216;2022-08-04T04:56:18;6.32;;;1.48;;
36445;SDS011;22472;50.848;-1.216;2022-08-04T04:58:54;9.43;;;1.50;;
36445;SDS011;22472;50.848;-1.216;2022-08-04T05:10:31;7.50;;;1.55;;
36445;SDS011;22472;50.848;-1.216;2022-08-04T05:13:09;7.78;;;1.90;;
36445;SDS011;22472;50.848;-1.216;2022-08-04T05:15:50;10.63;;;2.10;;
36445;SDS011;22472;50.848;-1.216;2022-08-04T05:18:21;7.60;;;1.92;;
36445;SDS011;22472;50.848;-1.216;2022-08-04T05:20:52;8.65;;;1.83;;
36445;SDS011;22472;50.848;-1.216;2022-08-04T05:23:24;8.73;;;2.20;;
36445;SDS011;22472;50.848;-1.216;2022-08-04T05:25:55;7.55;;;2.05;;
36445;SDS011;22472;50.848;-1.216;2022-08-04T05:28:26;7.45;;;1.80;;
36445;SDS011;22472;50.848;-1.216;2022-08-04T05:31:00;11.07;;;2.00;;
36445;SDS011;22472;50.848;-1.216;2022-08-04T05:33:31;8.25;;;2.00;;
36445;SDS011;22472;50.848;-1.216;2022-08-04T05:36:04;8.80;;;2.08;;
36445;SDS011;22472;50.848;-1.216;2022-08-04T05:38:36;10.35;;;1.90;;
36445;SDS011;22472;50.848;-1.216;2022-08-04T05:41:06;10.27;;;1.55;;
36445;SDS011;22472;50.848;-1.216;2022-08-04T05:43:35;9.23;;;1.60;;
36445;SDS011;22472;50.848;-1.216;2022-08-04T05:46:06;8.77;;;1.77;;
36445;SDS011;22472;50.848;-1.216;2022-08-04T05:48:34;9.20;;;1.60;;
36445;SDS011;22472;50.848;-1.216;2022-08-04T05:51:02;7.85;;;1.65;;
36445;SDS011;22472;50.848;-1.216;2022-08-04T05:53:30;8.38;;;1.80;;
36445;SDS011;22472;50.848;-1.216;2022-08-04T05:55:59;6.43;;;1.60;;
36445;SDS011;22472;50.848;-1.216;2022-08-04T05:58:28;6.95;;;1.67;;
36445;SDS011;22472;50.848;-1.216;2022-08-04T06:00:56;8.35;;;1.92;;
36445;SDS011;22472;50.848;-1.216;2022-08-04T06:03:26;7.43;;;1.33;;
36445;SDS011;22472;50.848;-1.216;2022-08-04T06:05:55;10.48;;;1.60;;
36445;SDS011;22472;50.848;-1.216;2022-08-04T06:08:23;11.60;;;1.88;;
36445;SDS011;22472;50.848;-1.216;2022-08-04T06:10:50;10.10;;;2.00;;
36445;SDS011;22472;50.848;-1.216;2022-08-04T06:13:24;10.20;;;2.05;;
36445;SDS011;22472;50.848;-1.216;2022-08-04T06:15:54;7.30;;;1.85;;
36445;SDS011;22472;50.848;-1.216;2022-08-04T06:18:22;11.70;;;1.77;;
36445;SDS011;22472;50.848;-1.216;2022-08-04T06:20:54;10.95;;;2.28;;
36445;SDS011;22472;50.848;-1.216;2022-08-04T06:23:23;6.28;;;1.45;;
36445;SDS011;22472;50.848;-1.216;2022-08-04T06:25:56;12.30;;;1.75;;
36445;SDS011;22472;50.848;-1.216;2022-08-04T06:30:53;6.88;;;1.35;;
36445;SDS011;22472;50.848;-1.216;2022-08-04T06:33:28;8.93;;;1.42;;
36445;SDS011;22472;50.848;-1.216;2022-08-04T06:35:59;9.30;;;1.70;;
36445;SDS011;22472;50.848;-1.216;2022-08-04T06:38:28;9.57;;;1.42;;
36445;SDS011;22472;50.848;-1.216;2022-08-04T06:40:56;8.32;;;1.40;;
36445;SDS011;22472;50.848;-1.216;2022-08-04T06:43:24;10.18;;;1.40;;
36445;SDS011;22472;50.848;-1.216;2022-08-04T06:45:53;9.13;;;1.30;;
36445;SDS011;22472;50.848;-1.216;2022-08-04T06:48:20;6.75;;;1.08;;
36445;SDS011;22472;50.848;-1.216;2022-08-04T06:50:50;8.07;;;1.15;;
36445;SDS011;22472;50.848;-1.216;2022-08-04T06:53:19;9.20;;;1.33;;
36445;SDS011;22472;50.848;-1.216;2022-08-04T06:55:46;7.22;;;1.27;;
36445;SDS011;22472;50.848;-1.216;2022-08-04T06:58:15;6.88;;;1.27;;
36445;SDS011;22472;50.848;-1.216;2022-08-04T07:00:43;8.43;;;1.02;;
36445;SDS011;22472;50.848;-1.216;2022-08-04T07:03:12;5.95;;;1.20;;
36445;SDS011;22472;50.848;-1.216;2022-08-04T07:05:42;8.80;;;1.27;;
36445;SDS011;22472;50.848;-1.216;2022-08-04T07:08:12;6.07;;;1.00;;
36445;SDS011;22472;50.848;-1.216;2022-08-04T07:10:40;7.43;;;1.00;;
36445;SDS011;22472;50.848;-1.216;2022-08-04T07:13:08;7.78;;;1.05;;
36445;SDS011;22472;50.848;-1.216;2022-08-04T07:15:37;9.13;;;0.90;;
36445;SDS011;22472;50.848;-1.216;2022-08-04T07:18:06;7.25;;;1.33;;
36445;SDS011;22472;50.848;-1.216;2022-08-04T07:20:33;8.07;;;1.00;;
36445;SDS011;22472;50.848;-1.216;2022-08-04T07:23:00;8.90;;;1.13;;
36445;SDS011;22472;50.848;-1.216;2022-08-04T07:25:29;6.90;;;1.33;;
36445;SDS011;22472;50.848;-1.216;2022-08-04T07:27:57;4.05;;;0.85;;
36445;SDS011;22472;50.848;-1.216;2022-08-04T07:30:24;6.07;;;1.13;;
36445;SDS011;22472;50.848;-1.216;2022-08-04T07:32:53;5.30;;;0.70;;
36445;SDS011;22472;50.848;-1.216;2022-08-04T07:35:21;5.65;;;0.80;;
36445;SDS011;22472;50.848;-1.216;2022-08-04T07:37:49;10.57;;;0.98;;
36445;SDS011;22472;50.848;-1.216;2022-08-04T07:40:16;5.45;;;0.85;;
36445;SDS011;22472;50.848;-1.216;2022-08-04T07:42:44;7.30;;;0.95;;
36445;SDS011;22472;50.848;-1.216;2022-08-04T07:45:12;7.78;;;0.80;;
36445;SDS011;22472;50.848;-1.216;2022-08-04T07:47:43;4.00;;;0.68;;
36445;SDS011;22472;50.848;-1.216;2022-08-04T07:50:10;7.72;;;1.08;;
36445;SDS011;22472;50.848;-1.216;2022-08-04T07:52:38;5.68;;;0.70;;
36445;SDS011;22472;50.848;-1.216;2022-08-04T07:55:05;7.70;;;1.00;;
36445;SDS011;22472;50.848;-1.216;2022-08-04T07:57:33;6.15;;;0.52;;
36445;SDS011;22472;50.848;-1.216;2022-08-04T08:00:03;6.40;;;0.65;;
36445;SDS011;22472;50.848;-1.216;2022-08-04T08:02:31;4.57;;;0.47;;
36445;SDS011;22472;50.848;-1.216;2022-08-04T08:05:00;4.28;;;0.40;;
36445;SDS011;22472;50.848;-1.216;2022-08-04T08:07:27;5.32;;;0.47;;
36445;SDS011;22472;50.848;-1.216;2022-08-04T08:09:54;3.92;;;0.50;;
36445;SDS011;22472;50.848;-1.216;2022-08-04T08:12:22;4.05;;;0.63;;
36445;SDS011;22472;50.848;-1.216;2022-08-04T08:14:49;5.68;;;0.68;;
36445;SDS011;22472;50.848;-1.216;2022-08-04T08:17:18;4.47;;;0.50;;
36445;SDS011;22472;50.848;-1.216;2022-08-04T08:19:45;7.55;;;1.13;;
36445;SDS011;22472;50.848;-1.216;2022-08-04T08:22:12;6.80;;;0.73;;
36445;SDS011;22472;50.848;-1.216;2022-08-04T08:24:40;4.63;;;0.52;;
36445;SDS011;22472;50.848;-1.216;2022-08-04T08:27:07;3.78;;;0.57;;
36445;SDS011;22472;50.848;-1.216;2022-08-04T08:29:34;4.47;;;0.60;;
36445;SDS011;22472;50.848;-1.216;2022-08-04T08:32:03;4.13;;;0.50;;
36445;SDS011;22472;50.848;-1.216;2022-08-04T08:34:33;5.18;;;0.55;;
36445;SDS011;22472;50.848;-1.216;2022-08-04T08:37:02;7.50;;;0.70;;
36445;SDS011;22472;50.848;-1.216;2022-08-04T08:39:36;6.78;;;0.68;;
36445;SDS011;22472;50.848;-1.216;2022-08-04T08:42:30;5.05;;;0.63;;
36445;SDS011;22472;50.848;-1.216;2022-08-04T08:45:17;4.30;;;0.40;;
36445;SDS011;22472;50.848;-1.216;2022-08-04T08:48:17;5.32;;;0.50;;
36445;SDS011;22472;50.848;-1.216;2022-08-04T08:51:14;3.30;;;0.45;;
36445;SDS011;22472;50.848;-1.216;2022-08-04T08:53:55;4.40;;;0.60;;
36445;SDS011;22472;50.848;-1.216;2022-08-04T08:56:35;3.70;;;0.35;;
36445;SDS011;22472;50.848;-1.216;2022-08-04T08:59:17;3.88;;;0.40;;
36445;SDS011;22472;50.848;-1.216;2022-08-04T09:02:02;2.83;;;0.40;;
36445;SDS011;22472;50.848;-1.216;2022-08-04T09:07:47;3.22;;;0.40;;
36445;SDS011;22472;50.848;-1.216;2022-08-04T09:10:29;7.10;;;0.70;;
36445;SDS011;22472;50.848;-1.216;2022-08-04T09:13:07;4.00;;;0.50;;
36445;SDS011;22472;50.848;-1.216;2022-08-04T09:15:38;6.05;;;0.77;;
36445;SDS011;22472;50.848;-1.216;2022-08-04T09:18:12;4.03;;;0.70;;
36445;SDS011;22472;50.848;-1.216;2022-08-04T09:20:46;4.75;;;0.50;;
36445;SDS011;22472;50.848;-1.216;2022-08-04T09:23:19;3.97;;;0.60;;
36445;SDS011;22472;50.848;-1.216;2022-08-04T09:25:56;2.58;;;0.60;;
36445;SDS011;22472;50.848;-1.216;2022-08-04T09:28:28;4.38;;;0.77;;
36445;SDS011;22472;50.848;-1.216;2022-08-04T09:31:08;2.83;;;0.68;;
36445;SDS011;22472;50.848;-1.216;2022-08-04T09:33:41;3.03;;;0.52;;
36445;SDS011;22472;50.848;-1.216;2022-08-04T09:36:19;3.67;;;0.57;;
36445;SDS011;22472;50.848;-1.216;2022-08-04T09:39:00;4.72;;;0.82;;
36445;SDS011;22472;50.848;-1.216;2022-08-04T09:41:34;3.33;;;0.60;;
36445;SDS011;22472;50.848;-1.216;2022-08-04T09:44:07;3.55;;;0.50;;
36445;SDS011;22472;50.848;-1.216;2022-08-04T09:46:49;5.13;;;0.60;;
36445;SDS011;22472;50.848;-1.216;2022-08-04T09:49:22;4.72;;;0.77;;
36445;SDS011;22472;50.848;-1.216;2022-08-04T09:51:58;6.82;;;0.68;;
36445;SDS011;22472;50.848;-1.216;2022-08-04T09:54:41;3.28;;;0.50;;
36445;SDS011;22472;50.848;-1.216;2022-08-04T09:57:13;2.22;;;0.68;;
36445;SDS011;22472;50.848;-1.216;2022-08-04T09:59:57;4.03;;;0.60;;
36445;SDS011;22472;50.848;-1.216;2022-08-04T10:02:30;3.05;;;0.40;;
36445;SDS011;22472;50.848;-1.216;2022-08-04T10:05:01;4.20;;;0.52;;
36445;SDS011;22472;50.848;-1.216;2022-08-04T10:07:39;3.05;;;0.57;;
36445;SDS011;22472;50.848;-1.216;2022-08-04T10:10:26;2.42;;;0.55;;
36445;SDS011;22472;50.848;-1.216;2022-08-04T10:13:04;2.70;;;0.50;;
36445;SDS011;22472;50.848;-1.216;2022-08-04T10:15:45;2.67;;;0.50;;
36445;SDS011;22472;50.848;-1.216;2022-08-04T10:18:24;7.20;;;0.88;;
36445;SDS011;22472;50.848;-1.216;2022-08-04T10:21:04;3.65;;;0.50;;
36445;SDS011;22472;50.848;-1.216;2022-08-04T10:23:39;3.60;;;0.43;;
36445;SDS011;22472;50.848;-1.216;2022-08-04T10:26:19;2.78;;;0.60;;
36445;SDS011;22472;50.848;-1.216;2022-08-04T10:28:54;1.70;;;0.30;;
36445;SDS011;22472;50.848;-1.216;2022-08-04T10:31:27;3.60;;;0.50;;
36445;SDS011;22472;50.848;-1.216;2022-08-04T10:33:57;2.88;;;0.40;;
36445;SDS011;22472;50.848;-1.216;2022-08-04T10:36:29;3.13;;;0.43;;
36445;SDS011;22472;50.848;-1.216;2022-08-04T10:39:04;3.95;;;0.52;;
36445;SDS011;22472;50.848;-1.216;2022-08-04T10:41:38;4.07;;;0.40;;
36445;SDS011;22472;50.848;-1.216;2022-08-04T10:44:15;1.92;;;0.30;;
36445;SDS011;22472;50.848;-1.216;2022-08-04T10:46:50;2.95;;;0.40;;
36445;SDS011;22472;50.848;-1.216;2022-08-04T10:49:21;2.78;;;0.30;;
36445;SDS011;22472;50.848;-1.216;2022-08-04T10:52:01;3.15;;;0.40;;
36445;SDS011;22472;50.848;-1.216;2022-08-04T10:54:40;2.28;;;0.30;;
36445;SDS011;22472;50.848;-1.216;2022-08-04T10:57:17;2.72;;;0.40;;
36445;SDS011;22472;50.848;-1.216;2022-08-04T10:59:48;2.00;;;0.30;;
36445;SDS011;22472;50.848;-1.216;2022-08-04T11:02:24;2.72;;;0.47;;
36445;SDS011;22472;50.848;-1.216;2022-08-04T11:05:02;2.97;;;0.40;;
36445;SDS011;22472;50.848;-1.216;2022-08-04T11:07:44;2.80;;;0.63;;
36445;SDS011;22472;50.848;-1.216;2022-08-04T11:10:14;1.63;;;0.40;;
36445;SDS011;22472;50.848;-1.216;2022-08-04T11:12:46;2.60;;;0.30;;
36445;SDS011;22472;50.848;-1.216;2022-08-04T11:15:20;2.67;;;0.40;;
36445;SDS011;22472;50.848;-1.216;2022-08-04T11:17:51;2.90;;;0.30;;
36445;SDS011;22472;50.848;-1.216;2022-08-04T11:20:23;3.53;;;0.35;;
36445;SDS011;22472;50.848;-1.216;2022-08-04T11:22:57;3.55;;;0.40;;
36445;SDS011;22472;50.848;-1.216;2022-08-04T11:25:28;2.70;;;0.30;;
36445;SDS011;22472;50.848;-1.216;2022-08-04T11:28:03;3.08;;;0.40;;
36445;SDS011;22472;50.848;-1.216;2022-08-04T11:30:39;2.28;;;0.40;;
36445;SDS011;22472;50.848;-1.216;2022-08-04T11:33:13;1.83;;;0.32;;
36445;SDS011;22472;50.848;-1.216;2022-08-04T11:35:51;1.63;;;0.28;;
36445;SDS011;22472;50.848;-1.216;2022-08-04T11:38:29;2.40;;;0.30;;
36445;SDS011;22472;50.848;-1.216;2022-08-04T11:41:03;2.40;;;0.38;;
36445;SDS011;22472;50.848;-1.216;2022-08-04T11:43:41;1.85;;;0.30;;
36445;SDS011;22472;50.848;-1.216;2022-08-04T11:46:11;1.88;;;0.30;;
36445;SDS011;22472;50.848;-1.216;2022-08-04T11:48:44;1.67;;;0.20;;
36445;SDS011;22472;50.848;-1.216;2022-08-04T11:51:18;2.05;;;0.30;;
36445;SDS011;22472;50.848;-1.216;2022-08-04T11:53:46;1.90;;;0.20;;
36445;SDS011;22472;50.848;-1.216;2022-08-04T11:56:14;2.90;;;0.30;;
36445;SDS011;22472;50.848;-1.216;2022-08-04T11:58:43;2.03;;;0.30;;
36445;SDS011;22472;50.848;-1.216;2022-08-04T12:01:11;2.03;;;0.30;;
36445;SDS011;22472;50.848;-1.216;2022-08-04T12:03:48;2.38;;;0.30;;
36445;SDS011;22472;50.848;-1.216;2022-08-04T12:06:27;2.05;;;0.30;;
36445;SDS011;22472;50.848;-1.216;2022-08-04T12:09:02;3.78;;;0.38;;
36445;SDS011;22472;50.848;-1.216;2022-08-04T12:11:41;1.58;;;0.20;;
36445;SDS011;22472;50.848;-1.216;2022-08-04T12:16:54;1.67;;;0.13;;
36445;SDS011;22472;50.848;-1.216;2022-08-04T12:19:28;0.85;;;0.10;;
36445;SDS011;22472;50.848;-1.216;2022-08-04T12:21:58;1.20;;;0.20;;
36445;SDS011;22472;50.848;-1.216;2022-08-04T12:24:30;1.95;;;0.20;;
36445;SDS011;22472;50.848;-1.216;2022-08-04T12:27:04;2.33;;;0.28;;
36445;SDS011;22472;50.848;-1.216;2022-08-04T12:29:39;1.02;;;0.17;;
36445;SDS011;22472;50.848;-1.216;2022-08-04T12:32:10;2.00;;;0.20;;
36445;SDS011;22472;50.848;-1.216;2022-08-04T12:34:47;1.10;;;0.20;;
36445;SDS011;22472;50.848;-1.216;2022-08-04T12:37:26;2.88;;;0.20;;
36445;SDS011;22472;50.848;-1.216;2022-08-04T12:40:00;1.83;;;0.20;;
36445;SDS011;22472;50.848;-1.216;2022-08-04T12:42:35;1.50;;;0.20;;
36445;SDS011;22472;50.848;-1.216;2022-08-04T12:45:11;2.13;;;0.20;;
36445;SDS011;22472;50.848;-1.216;2022-08-04T12:50:06;1.23;;;0.20;;
36445;SDS011;22472;50.848;-1.216;2022-08-04T12:52:40;3.03;;;0.30;;
36445;SDS011;22472;50.848;-1.216;2022-08-04T12:55:08;1.00;;;0.20;;
36445;SDS011;22472;50.848;-1.216;2022-08-04T12:57:36;4.88;;;0.43;;
36445;SDS011;22472;50.848;-1.216;2022-08-04T13:00:05;3.85;;;0.32;;
36445;SDS011;22472;50.848;-1.216;2022-08-04T13:02:36;1.73;;;0.20;;
36445;SDS011;22472;50.848;-1.216;2022-08-04T13:05:08;3.53;;;0.20;;
36445;SDS011;22472;50.848;-1.216;2022-08-04T13:07:39;1.30;;;0.20;;
36445;SDS011;22472;50.848;-1.216;2022-08-04T13:10:12;3.15;;;0.20;;
36445;SDS011;22472;50.848;-1.216;2022-08-04T13:12:41;2.80;;;0.20;;
36445;SDS011;22472;50.848;-1.216;2022-08-04T13:15:19;2.67;;;0.30;;
36445;SDS011;22472;50.848;-1.216;2022-08-04T13:17:54;2.63;;;0.10;;
36445;SDS011;22472;50.848;-1.216;2022-08-04T13:20:24;1.13;;;0.20;;
36445;SDS011;22472;50.848;-1.216;2022-08-04T13:22:57;1.70;;;0.10;;
36445;SDS011;22472;50.848;-1.216;2022-08-04T13:25:29;1.40;;;0.20;;
36445;SDS011;22472;50.848;-1.216;2022-08-04T13:27:58;1.67;;;0.30;;
36445;SDS011;22472;50.848;-1.216;2022-08-04T13:30:26;3.30;;;0.22;;
36445;SDS011;22472;50.848;-1.216;2022-08-04T13:33:00;2.15;;;0.20;;
36445;SDS011;22472;50.848;-1.216;2022-08-04T13:35:28;1.10;;;0.20;;
36445;SDS011;22472;50.848;-1.216;2022-08-04T13:40:25;2.70;;;0.22;;
36445;SDS011;22472;50.848;-1.216;2022-08-04T13:42:54;1.92;;;0.20;;
36445;SDS011;22472;50.848;-1.216;2022-08-04T13:45:22;2.75;;;0.30;;
36445;SDS011;22472;50.848;-1.216;2022-08-04T13:47:50;3.85;;;0.28;;
36445;SDS011;22472;50.848;-1.216;2022-08-04T13:50:25;2.42;;;0.20;;
36445;SDS011;22472;50.848;-1.216;2022-08-04T13:52:56;2.10;;;0.20;;
36445;SDS011;22472;50.848;-1.216;2022-08-04T13:55:26;2.65;;;0.20;;
36445;SDS011;22472;50.848;-1.216;2022-08-04T13:57:56;1.45;;;0.20;;
36445;SDS011;22472;50.848;-1.216;2022-08-04T14:00:38;2.13;;;0.20;;
36445;SDS011;22472;50.848;-1.216;2022-08-04T14:03:12;1.90;;;0.20;;
36445;SDS011;22472;50.848;-1.216;2022-08-04T14:08:42;1.42;;;0.20;;
36445;SDS011;22472;50.848;-1.216;2022-08-04T14:11:13;2.10;;;0.20;;
36445;SDS011;22472;50.848;-1.216;2022-08-04T14:13:41;1.73;;;0.20;;
36445;SDS011;22472;50.848;-1.216;2022-08-04T14:16:16;1.70;;;0.20;;
36445;SDS011;22472;50.848;-1.216;2022-08-04T14:18:47;1.58;;;0.20;;
36445;SDS011;22472;50.848;-1.216;2022-08-04T14:21:22;2.72;;;0.17;;
36445;SDS011;22472;50.848;-1.216;2022-08-04T14:23:50;1.80;;;0.13;;
36445;SDS011;22472;50.848;-1.216;2022-08-04T14:26:19;1.20;;;0.20;;
36445;SDS011;22472;50.848;-1.216;2022-08-04T14:28:48;1.90;;;0.20;;
36445;SDS011;22472;50.848;-1.216;2022-08-04T14:31:17;1.45;;;0.20;;
36445;SDS011;22472;50.848;-1.216;2022-08-04T14:33:47;0.68;;;0.13;;
36445;SDS011;22472;50.848;-1.216;2022-08-04T14:36:16;3.00;;;0.20;;
36445;SDS011;22472;50.848;-1.216;2022-08-04T14:38:51;1.30;;;0.10;;
36445;SDS011;22472;50.848;-1.216;2022-08-04T14:41:20;1.02;;;0.20;;
36445;SDS011;22472;50.848;-1.216;2022-08-04T14:43:50;3.10;;;0.20;;
36445;SDS011;22472;50.848;-1.216;2022-08-04T14:46:19;2.33;;;0.10;;
36445;SDS011;22472;50.848;-1.216;2022-08-04T14:49:02;2.03;;;0.28;;
36445;SDS011;22472;50.848;-1.216;2022-08-04T14:51:35;3.20;;;0.20;;
36445;SDS011;22472;50.848;-1.216;2022-08-04T14:54:03;1.63;;;0.10;;
36445;SDS011;22472;50.848;-1.216;2022-08-04T14:56:31;2.28;;;0.30;;
36445;SDS011;22472;50.848;-1.216;2022-08-04T14:59:00;2.22;;;0.30;;
36445;SDS011;22472;50.848;-1.216;2022-08-04T15:01:29;2.42;;;0.10;;
36445;SDS011;22472;50.848;-1.216;2022-08-04T15:03:57;2.80;;;0.13;;
36445;SDS011;22472;50.848;-1.216;2022-08-04T15:06:29;0.93;;;0.10;;
36445;SDS011;22472;50.848;-1.216;2022-08-04T15:08:58;1.48;;;0.20;;
36445;SDS011;22472;50.848;-1.216;2022-08-04T15:11:28;1.25;;;0.17;;
36445;SDS011;22472;50.848;-1.216;2022-08-04T15:13:55;2.22;;;0.15;;
36445;SDS011;22472;50.848;-1.216;2022-08-04T15:16:24;2.22;;;0.17;;
36445;SDS011;22472;50.848;-1.216;2022-08-04T15:18:53;0.70;;;0.20;;
36445;SDS011;22472;50.848;-1.216;2022-08-04T15:21:22;2.47;;;0.25;;
36445;SDS011;22472;50.848;-1.216;2022-08-04T15:23:52;2.63;;;0.20;;
36445;SDS011;22472;50.848;-1.216;2022-08-04T15:26:22;0.65;;;0.10;;
36445;SDS011;22472;50.848;-1.216;2022-08-04T15:28:55;3.47;;;0.20;;
36445;SDS011;22472;50.848;-1.216;2022-08-04T15:31:25;1.55;;;0.20;;
36445;SDS011;22472;50.848;-1.216;2022-08-04T15:33:53;0.80;;;0.10;;
36445;SDS011;22472;50.848;-1.216;2022-08-04T15:36:26;3.25;;;0.30;;
36445;SDS011;22472;50.848;-1.216;2022-08-04T15:39:02;2.25;;;0.20;;
36445;SDS011;22472;50.848;-1.216;2022-08-04T15:41:36;1.40;;;0.10;;
36445;SDS011;22472;50.848;-1.216;2022-08-04T15:47:12;3.80;;;0.13;;
36445;SDS011;22472;50.848;-1.216;2022-08-04T15:49:41;2.05;;;0.20;;
36445;SDS011;22472;50.848;-1.216;2022-08-04T15:52:11;1.67;;;0.10;;
36445;SDS011;22472;50.848;-1.216;2022-08-04T15:54:41;3.88;;;0.60;;
36445;SDS011;22472;50.848;-1.216;2022-08-04T15:57:09;3.30;;;0.70;;
36445;SDS011;22472;50.848;-1.216;2022-08-04T16:02:41;1.45;;;0.10;;
36445;SDS011;22472;50.848;-1.216;2022-08-04T16:08:15;1.63;;;0.10;;
36445;SDS011;22472;50.848;-1.216;2022-08-04T16:10:44;2.85;;;0.20;;
36445;SDS011;22472;50.848;-1.216;2022-08-04T16:13:13;2.67;;;0.20;;
36445;SDS011;22472;50.848;-1.216;2022-08-04T16:15:45;1.67;;;0.10;;